Go Pro

Natural Resource Partners (NRP) Institutional Ownership

Natural Resource Partners logo
$113.25 +0.74 (+0.66%)
As of 09/3/2026 03:58 PM Eastern

Institutional Ownership Changes (13F Filings) for Natural Resource Partners (NYSE:NRP)

Current
Institutional Ownership
Percentage
31.77%
Number of
Institutional Buyers
(last 12 months)
36
Total
Institutional Inflows
(last 12 months)
$149.17M
Number of
Institutional Sellers
(last 12 months)
15
Total
Institutional Outflows
(last 12 months)
$46.20M
Get NRP Insider Trade Alerts

Want to know when executives and insiders are buying or selling Natural Resource Partners stock? Sign up for InsiderTrades.com's daily newsletter to get the latest insider transactions delivered to your inbox daily.

SMS is currently available in Australia, Belgium, Canada, France, Germany, Ireland, Italy, New Zealand, the Netherlands, Singapore, South Africa, Spain, Switzerland, the United Kingdom, and the United States. By entering your phone number and clicking the sign-up button, you agree to receive periodic text messages from MarketBeat at the phone number you submitted, including texts that may be sent using an automatic telephone dialing system. Message and data rates may apply. Message frequency will vary. Messages will consist of stock alerts, news stories, and partner advertisements/offers. Consent is not a condition of the purchase of any goods or services. Text HELP for help/customer support. Unsubscribe at any time by replying "STOP" to any text message that you receive from MarketBeat or by visiting our mailing preferences page. Read our full terms of service and privacy policy.
Skip Chart & View Institutional Buying and Selling Data

NRP Institutional Buying and Selling by Quarter

Natural Resource Partners Major Shareholders & Ownership History

Reporting DateMajor Shareholder NameShares HeldMarket Value% of PortfolioQuarterly Change in SharesOwnership in CompanyDetails
9/3/2026Cygnus Capital Advisors LLC9,700$941K0.6%-1.0%0.073%
8/27/2026 Corient Private Wealth LP592,072$57.43M0.1%-3.4%4.468%
5/19/2026 Bank of America Corp DE183,026$22.15M0.0%+48.2%1.381%
5/18/2026 Royal Bank of Canada18,335$2.22M0.0%+18.2%0.138%
5/15/2026 Waverly Advisors LLC26,000$3.15M0.0%N/A0.196%
5/14/2026 Morningstar Investment Management LLC3,233$391K0.0%N/A0.024%
5/14/2026 Mizuho Markets Americas LLC25,400$3.07M0.1%N/A0.192%
5/14/2026 State of Wyoming1,839$223K0.0%-28.4%0.014%
5/13/2026 First Trust Advisors LP8,991$1.09M0.0%-11.5%0.068%
5/5/2026 Bastion Asset Management Inc.19,330$2.36M0.7%N/A0.146%
4/17/2026 Novare Capital Management LLC2,175$263K0.0%+11.5%0.016%
2/18/2026 Stokes Family Office LLC17,505$1.83M0.2%+12.5%0.135%
2/18/2026 Susquehanna Portfolio Strategies LLC3,200$334K0.0%N/A0.025%
2/18/2026 Oakcliff Capital Partners LP127,351$13.30M5.7%-24.7%0.983%
2/18/2026 Fairholme Capital Management LLC12,000$1.25M0.1%N/A0.093%
2/17/2026 Cetera Investment Advisers3,369$352K0.0%-11.3%0.026%
2/17/2026 Mountain Lake Investment Management LLC65,330$6.82M5.2%+43.2%0.504%
2/17/2026 Nitor Capital Management LLC64,209$6.70M6.0%N/A0.495%
2/17/2026 Jump Financial LLC1,974$206K0.0%-14.3%0.015%
2/17/2026 Goldentree Asset Management LP31,460$3.28M0.2%-31.3%0.243%
2/17/2026 Royal Bank of Canada15,507$1.62M0.0%+62.8%0.120%
2/16/2026 Saber Capital Managment LLC208,483$21.77M18.2%N/A1.609%
2/13/2026 Meixler Investment Management Ltd.94,506$9.87M6.0%+21.2%0.000%
2/13/2026 Morgan Stanley1,006,232$105.05M0.0%+14.3%0.000%
2/13/2026 First Trust Advisors LP10,161$1.06M0.0%-44.3%0.000%
2/13/2026 Integrated Wealth Concepts LLC4,678$488K0.0%+47.2%0.000%
2/12/2026 HRT Financial LP9,818$1.02M0.0%-5.3%0.000%
2/12/2026 Annandale Capital LLC26,207$2.74M0.3%+0.4%0.000%
2/11/2026 Horizon Kinetics Asset Management LLC24,865$2.60M0.0%+1.2%0.192%
2/11/2026 JPMorgan Chase & Co.163,813$17.10M0.0%-38.8%0.000%
2/11/2026 ING Groep NV175,400$18.31M0.1%+8.0%0.000%
2/11/2026 State of Wyoming2,570$268K0.0%+37.4%0.000%
2/10/2026 Goldman Sachs Group Inc.748,185$78.11M0.0%+9.3%0.000%
2/9/2026 Ballast Asset Management LP72,207$7.54M3.6%-4.8%0.000%
2/6/2026 HighTower Advisors LLC4,351$454K0.0%N/A0.034%
2/5/2026 O Brien Greene & Co. Inc2,000$209K0.1%N/A0.015%
2/5/2026 Novare Capital Management LLC1,950$204K0.0%N/A0.015%
1/30/2026 Pekin Hardy Strauss Inc.21,225$2.22M0.2%+4.9%0.164%
1/30/2026 Arlington Trust Co LLC1,000$104K0.0%N/A0.008%
1/29/2026 UBS Group AG196,055$20.47M0.0%-8.7%1.513%
Here’s the stock symbol I’ve promised (Ad)

Whitney Tilson of Stansberry Research has long recommended Berkshire Hathaway as a core retirement holding - but now he believes he's found something better. This under-the-radar company sits at the intersection of America's two most important industries, including AI, pays massive dividends, and attracted a famous money manager who put 60% of his multi-billion-dollar fund into it. Tilson is revealing the name and ticker symbol completely free - no credit card or email required.tc pixel

Get the stock name and ticker symbol free of charge today
1/29/2026 Solidarity Wealth LLC214,776$22.42M4.6%+9.0%1.657%
1/14/2026 Exchange Traded Concepts LLC11,073$1.16M0.0%-6.0%0.085%
1/1/2026 JPMorgan Chase & Co.267,560$28.09M0.0%-22.3%2.065%
12/2/2025 Goldentree Asset Management LP45,811$4.81M0.4%-28.2%0.353%
11/17/2025 First Foundation Advisors7,941$834K0.0%+3.2%0.061%
11/17/2025 Progeny 3 Inc.312,523$32.82M1.7%+3.3%2.411%
11/17/2025 Mountain Lake Investment Management LLC45,622$4.79M3.6%+21.5%0.352%
11/17/2025 Integrated Wealth Concepts LLC3,177$334K0.0%N/A0.025%
11/17/2025 Bank of America Corp DE53,662$5.64M0.0%+1.9%0.414%
11/13/2025 Energy Income Partners LLC33,737$3.54M0.1%+4.6%0.260%
11/13/2025 Annandale Capital LLC26,100$2.74M0.5%N/A0.201%
11/13/2025 UBS Group AG214,771$22.55M0.0%+5.9%1.657%
11/13/2025 BNP Paribas Financial Markets4,922$517K0.0%+72.7%0.038%
11/13/2025 First Trust Advisors LP18,230$1.91M0.0%-11.7%0.141%
11/10/2025 Citigroup Inc.97,375$10.22M0.0%-32.7%0.751%
11/10/2025 Pekin Hardy Strauss Inc.20,225$2.12M0.2%+1.3%0.156%
11/7/2025 GSA Capital Partners LLP3,051$320K0.0%N/A0.024%
11/7/2025 JPMorgan Chase & Co.267,560$28.09M0.0%-22.3%2.065%
11/6/2025 ING Groep NV162,400$17.05M0.1%+33.4%1.253%
11/6/2025 Meixler Investment Management Ltd.77,967$8.19M5.0%+15.5%0.602%
11/4/2025 State of Wyoming1,871$196K0.0%+65.4%0.014%
11/4/2025 Ballast Asset Management LP75,868$7.97M3.6%-7.0%0.585%
10/24/2025 Solidarity Wealth LLC197,045$20.69M4.5%+5.7%1.520%
10/22/2025 Avalon Capital Management2,000$210K0.1%N/A0.015%
10/21/2025 Guyasuta Investment Advisors Inc.2,460$258K0.0%N/A0.019%
10/14/2025 Exchange Traded Concepts LLC11,779$1.24M0.0%+65.1%0.091%
9/26/2025 Corient Private Wealth LLC621,478$59.36M0.1%+12,329.6%4.795%
9/4/2025 Osaic Holdings Inc.608$58K0.0%-20.0%0.005%
8/19/2025 State of Wyoming1,131$108K0.0%-57.1%0.009%
8/15/2025 Corient Private Wealth LLC621,478$59.36M0.1%+12,329.6%4.795%
8/15/2025 Rangeley Capital LLC12,100$1.16M1.4%N/A0.093%
8/15/2025 HRT Financial LP17,594$1.68M0.0%+45.2%0.136%
8/15/2025 Energy Income Partners LLC32,249$3.08M0.1%-1.7%0.249%
8/15/2025 BNP Paribas Financial Markets2,850$272K0.0%+128.0%0.022%
8/15/2025 Bank of America Corp DE52,669$5.03M0.0%-10.1%0.406%
8/14/2025 Progeny 3 Inc.302,550$28.90M1.6%+4.3%2.334%
8/14/2025 Raymond James Financial Inc.1,429$137K0.0%N/A0.011%
8/14/2025 NewEdge Advisors LLC266$25K0.0%+144.0%0.002%
8/14/2025 Pecaut & CO.7,800$745K0.2%+6.8%0.060%
8/14/2025 Natixis61,300$5.86M0.0%-14.4%0.473%
8/13/2025 Jump Financial LLC2,444$233K0.0%+8.1%0.019%
8/13/2025 First Trust Advisors LP20,635$1.97M0.0%-43.8%0.159%
8/13/2025 Solidarity Wealth LLC186,393$17.80M4.2%+13.0%1.438%
8/12/2025Castalian Partners LLC77,081$7.36M100.0%+13.9%0.595%
8/12/2025 Horizon Kinetics Asset Management LLC19,123$1.83M0.0%+6.1%0.148%
8/12/2025 JPMorgan Chase & Co.344,351$32.89M0.0%-3.2%2.657%
8/6/2025 Stokes Family Office LLC15,355$1.47M0.2%+17.0%0.118%
8/5/2025 Meixler Investment Management Ltd.67,502$6.45M4.4%+36.6%0.521%
8/4/2025 Eubel Brady & Suttman Asset Management Inc.117,500$11.22M1.4%+0.1%0.907%
7/22/2025MAS Advisors LLC3,375$322K0.5%+4.3%0.026%
The cat is out the bag (Ad)

Almost 80,000 tech jobs vanished in the first three months of 2026. Meta cut 14,000 roles, Microsoft offered separation packages to 8,500 workers, and Oracle is reportedly eliminating up to 30,000 positions. Goldman Sachs estimates 12,400 Americans are being financially displaced every single day. Analyst Porter Stansberry says the real driver runs deeper than AI - and two Nobel Prize winners have issued the same warning. He calls it the Final Displacement, and he's releasing a full investigation with specific companies to buy and sell before the next wave hits.tc pixel

Watch Porter Stansberry's full investigation into the Final Displacement now
5/21/2025Acadian Asset Management LLC15,664$1.63M0.0%-20.6%0.121%
5/16/2025Goldman Sachs Group Inc.728,873$75.73M0.0%-1.3%5.624%
5/16/2025Mountain Lake Investment Management LLC22,101$2.30M2.2%+100.0%0.171%
5/16/2025Eschler Asset Management LLP8,000$831K2.1%N/A0.062%
5/15/2025Royal Bank of Canada9,199$956K0.0%+23.7%0.071%
5/15/2025Energy Income Partners LLC32,807$3.41M0.1%+4.4%0.253%
5/15/2025State of Wyoming2,638$274K0.0%+23.8%0.020%
5/12/2025Covestor Ltd940$98K0.1%+21.6%0.007%
5/12/2025Citigroup Inc.144,768$15.04M0.0%-16.7%1.117%
5/9/2025ING Groep NV108,910$11.32M0.1%+16.0%0.840%


NRP Institutional Ownership - Frequently Asked Questions

During the previous two years, 73 institutional investors and hedge funds held shares of Natural Resource Partners. The most heavily invested institutionals were Morgan Stanley ($105.05M), Goldman Sachs Group Inc. ($78.11M), Corient Private Wealth LLC ($59.36M), Corient Private Wealth LP ($57.43M), Progeny 3 Inc. ($32.82M), Solidarity Wealth LLC ($22.42M), and Bank of America Corp DE ($22.15M).Learn more on Natural Resource Partners' institutional investors.

31.77% of Natural Resource Partners' stock is owned by institutional investors. Learn more on NRP's institutional investor holdings.

Of the 56 institutional investors that purchased Natural Resource Partners' stock in the last 24 months, the following investors and hedge funds have bought the highest volume of shares: Corient Private Wealth LLC ($1.23M), Solidarity Wealth LLC ($210.68K), Saber Capital Managment LLC ($208.48K), Progeny 3 Inc. ($164.07K), Morgan Stanley ($125.53K), ING Groep NV ($108.21K), and Bank of America Corp DE ($79.27K).

Institutional investors have bought a total of 1,456,730 shares in the last 24 months. This purchase volume represents approximately $149.17M in transactions.

Of the 14 institutional investors that sold Natural Resource Partners' stock in the last 24 months, the following investors and hedge funds have sold the highest volume of shares: JPMorgan Chase & Co. ($257.33K), Citigroup Inc. ($47.39K), Oakcliff Capital Partners LP ($41.71K), Goldentree Asset Management LP ($32.38K), Corient Private Wealth LP ($21K), UBS Group AG ($18.72K), and First Trust Advisors LP ($11.64K).

Institutional investors have sold a total of 442,398 shares in the last 24 months. This volume of shares sold represents approximately $46.20M in transactions.



Institutional ownership data for NYSE:NRP is compiled from quarterly 13F filings submitted to the U.S. Securities and Exchange Commission (SEC), with the most recent received on 9/3/2026. New 13F filings are added each quarter as they're published.
From Our Partners